Time;durP1;ratioP1;P1;durP2;ratioP2;P2;SDS_P1;SDS_P2;PMS_P1;PMS_P2;Temp;Humidity;BMP_temperature;BMP_pressure;BME280_temperature;BME280_humidity;BME280_pressure;Samples;Min_cycle;Max_cycle;Signal;HPM_P1;HPM_P2
2023/05/26 00:01:30;;;;;;;19.70;5.57;;;13.90;99.90;;;;;;5072347;28;20179;-63
2023/05/26 00:03:56;;;;;;;17.73;4.97;;;13.90;99.90;;;;;;5072463;28;20177;-63
2023/05/26 00:06:23;;;;;;;23.60;4.87;;;13.80;99.90;;;;;;5070517;28;20264;-63
2023/05/26 00:08:49;;;;;;;21.87;5.17;;;13.80;99.90;;;;;;5071698;28;20344;-62
2023/05/26 00:11:15;;;;;;;23.43;5.20;;;13.80;99.90;;;;;;5071935;28;20173;-63
2023/05/26 00:13:41;;;;;;;23.63;6.30;;;13.70;99.90;;;;;;5072724;28;20280;-62
2023/05/26 00:16:07;;;;;;;21.23;5.03;;;13.70;99.90;;;;;;5072980;28;20452;-63
2023/05/26 00:18:33;;;;;;;21.40;5.67;;;13.60;99.90;;;;;;5073248;28;20265;-63
2023/05/26 00:21:00;;;;;;;21.17;5.67;;;13.50;99.90;;;;;;5073059;28;20220;-63
2023/05/26 00:23:27;;;;;;;27.30;5.97;;;13.50;99.90;;;;;;5071730;28;20486;-63
2023/05/26 00:25:53;;;;;;;14.80;5.23;;;13.60;99.90;;;;;;5072258;28;20359;-63
2023/05/26 00:28:18;;;;;;;22.87;5.77;;;13.50;99.90;;;;;;5071793;28;20180;-63
2023/05/26 00:30:44;;;;;;;16.13;5.00;;;13.30;99.90;;;;;;5070773;28;20180;-63
2023/05/26 00:33:10;;;;;;;25.97;6.23;;;13.30;99.90;;;;;;5071782;28;20173;-63
2023/05/26 00:35:36;;;;;;;17.73;4.70;;;13.30;99.90;;;;;;5073159;28;20181;-63
2023/05/26 00:38:02;;;;;;;18.63;5.00;;;13.30;99.90;;;;;;5072338;28;20294;-63
2023/05/26 00:40:27;;;;;;;15.47;4.63;;;13.20;99.90;;;;;;5071596;28;20433;-63
2023/05/26 00:42:53;;;;;;;21.43;5.67;;;13.10;99.90;;;;;;5074095;28;20463;-63
2023/05/26 00:45:21;;;;;;;17.30;4.63;;;13.00;99.90;;;;;;5074669;28;20567;-63
2023/05/26 00:47:47;;;;;;;21.33;5.00;;;13.00;99.90;;;;;;5073424;28;20230;-63
2023/05/26 00:50:13;;;;;;;23.63;5.47;;;13.00;99.90;;;;;;5073929;28;20180;-62
2023/05/26 00:52:40;;;;;;;19.07;5.17;;;13.00;99.90;;;;;;5075744;28;20165;-63
2023/05/26 00:55:07;;;;;;;22.40;5.57;;;12.90;99.90;;;;;;5075469;28;20177;-63
2023/05/26 00:57:33;;;;;;;20.80;5.10;;;12.80;99.90;;;;;;5075801;28;20197;-63
2023/05/26 00:59:59;;;;;;;18.63;4.07;;;12.80;99.90;;;;;;5075140;28;20165;-63
2023/05/26 01:02:27;;;;;;;19.97;4.57;;;12.80;99.90;;;;;;5073426;28;20176;-63
2023/05/26 01:04:53;;;;;;;18.73;5.33;;;12.80;99.90;;;;;;5074106;28;20219;-63
2023/05/26 01:07:20;;;;;;;24.30;5.27;;;12.80;99.90;;;;;;5074061;28;20263;-63
2023/05/26 01:09:48;;;;;;;25.43;6.17;;;12.70;99.90;;;;;;5074466;28;20204;-63
2023/05/26 01:12:40;;;;;;;19.23;5.23;;;12.70;99.90;;;;;;5073610;28;20173;-63
2023/05/26 01:15:06;;;;;;;18.67;4.87;;;12.60;99.90;;;;;;5066254;28;20557;-64
2023/05/26 01:18:13;;;;;;;21.67;5.23;;;12.60;99.90;;;;;;5071730;28;20208;-64
2023/05/26 01:20:43;;;;;;;16.87;4.93;;;12.50;99.90;;;;;;5061748;28;20216;-63
2023/05/26 01:23:23;;;;;;;20.47;4.27;;;12.50;99.90;;;;;;5071288;28;20634;-63
2023/05/26 01:26:01;;;;;;;26.47;4.90;;;12.50;99.90;;;;;;5070871;28;20183;-63
2023/05/26 01:28:29;;;;;;;25.17;4.77;;;12.40;99.90;;;;;;5071219;28;20183;-63
2023/05/26 01:30:55;;;;;;;20.00;4.20;;;12.30;99.90;;;;;;5071310;28;20537;-63
2023/05/26 01:33:21;;;;;;;21.30;6.07;;;12.30;99.90;;;;;;5071899;28;20169;-63
2023/05/26 01:35:46;;;;;;;22.57;5.77;;;12.30;99.90;;;;;;5071977;28;20242;-63
2023/05/26 01:38:13;;;;;;;22.10;5.10;;;12.30;99.90;;;;;;5072111;28;20303;-63
2023/05/26 01:40:42;;;;;;;19.57;5.73;;;12.20;99.90;;;;;;5072314;28;20491;-63
2023/05/26 01:43:16;;;;;;;15.97;4.33;;;12.20;99.90;;;;;;5073087;28;20211;-63
2023/05/26 01:45:55;;;;;;;20.33;5.20;;;12.20;99.90;;;;;;5071658;28;20161;-63
2023/05/26 01:48:22;;;;;;;23.63;4.30;;;12.20;99.90;;;;;;5071576;28;20544;-63
2023/05/26 01:50:55;;;;;;;16.57;5.03;;;12.20;99.90;;;;;;5073393;28;20556;-63
2023/05/26 01:53:25;;;;;;;30.33;6.20;;;12.20;99.90;;;;;;5073547;28;20208;-63
2023/05/26 01:55:56;;;;;;;18.67;4.67;;;12.10;99.90;;;;;;5073933;28;20169;-63
2023/05/26 01:58:23;;;;;;;20.97;4.93;;;12.10;99.90;;;;;;5072734;28;20196;-63
2023/05/26 02:00:49;;;;;;;22.67;4.87;;;12.00;99.90;;;;;;5074770;28;20548;-63
2023/05/26 02:03:15;;;;;;;25.63;5.80;;;11.90;99.90;;;;;;5073027;28;20226;-62
2023/05/26 02:05:41;;;;;;;20.87;4.53;;;11.90;99.90;;;;;;5073732;28;20165;-63
2023/05/26 02:08:10;;;;;;;17.50;4.13;;;11.80;99.90;;;;;;5073456;28;20184;-63
2023/05/26 02:10:35;;;;;;;24.13;5.77;;;11.80;99.90;;;;;;5073329;28;20218;-63
2023/05/26 02:13:01;;;;;;;22.03;4.60;;;11.80;99.90;;;;;;5073962;28;20172;-63
2023/05/26 02:15:26;;;;;;;17.10;4.00;;;11.70;99.90;;;;;;5071256;28;20212;-62
2023/05/26 02:17:54;;;;;;;16.03;4.83;;;11.70;99.90;;;;;;5072245;28;20200;-63
2023/05/26 02:20:20;;;;;;;20.67;5.17;;;11.60;99.90;;;;;;5071522;28;20628;-63
2023/05/26 02:22:46;;;;;;;15.90;4.57;;;11.60;99.90;;;;;;5071812;28;20164;-63
2023/05/26 02:25:12;;;;;;;13.87;4.53;;;11.50;99.90;;;;;;5071950;28;20252;-63
2023/05/26 02:27:37;;;;;;;21.67;5.63;;;11.50;99.90;;;;;;5072779;28;20299;-63
2023/05/26 02:30:04;;;;;;;21.77;5.40;;;11.50;99.90;;;;;;5071308;28;20184;-63
2023/05/26 02:32:30;;;;;;;23.40;5.40;;;11.40;99.90;;;;;;5073368;28;20271;-63
2023/05/26 02:34:58;;;;;;;24.63;5.43;;;11.40;99.90;;;;;;5073020;28;20283;-63
2023/05/26 02:37:26;;;;;;;18.23;5.23;;;11.40;99.90;;;;;;5072496;28;20401;-63
2023/05/26 02:39:52;;;;;;;16.00;4.57;;;11.40;99.90;;;;;;5071726;28;20185;-63
2023/05/26 02:42:18;;;;;;;25.83;5.33;;;11.30;99.90;;;;;;5073189;28;20456;-63
2023/05/26 02:44:43;;;;;;;19.93;5.13;;;11.20;99.90;;;;;;5072938;28;20211;-63
2023/05/26 02:47:09;;;;;;;18.30;4.97;;;11.30;99.90;;;;;;5072311;28;20183;-63
2023/05/26 02:49:35;;;;;;;21.83;5.17;;;11.30;99.90;;;;;;5070223;28;20529;-63
2023/05/26 02:52:00;;;;;;;18.90;5.30;;;11.30;99.90;;;;;;5070338;28;20179;-63
2023/05/26 02:54:26;;;;;;;22.27;4.73;;;11.20;99.90;;;;;;5070088;28;20173;-62
2023/05/26 02:56:51;;;;;;;15.93;4.87;;;11.20;99.90;;;;;;5070296;28;20180;-63
2023/05/26 02:59:17;;;;;;;19.23;5.57;;;11.10;99.90;;;;;;5070406;28;20449;-63
2023/05/26 03:01:42;;;;;;;18.73;5.17;;;11.10;99.90;;;;;;5074618;28;20172;-63
2023/05/26 03:04:08;;;;;;;22.10;4.50;;;11.00;99.90;;;;;;5075048;28;20267;-63
2023/05/26 03:06:34;;;;;;;20.10;5.10;;;11.00;99.90;;;;;;5077226;28;20576;-62
2023/05/26 03:09:00;;;;;;;17.27;5.57;;;11.00;99.90;;;;;;5074913;28;20185;-62
2023/05/26 03:11:26;;;;;;;20.53;4.83;;;10.90;99.90;;;;;;5075046;28;20183;-62
2023/05/26 03:13:52;;;;;;;19.20;5.33;;;10.80;99.90;;;;;;5074984;28;20176;-63
2023/05/26 03:16:19;;;;;;;19.97;4.93;;;10.80;99.90;;;;;;5076089;28;20189;-62
2023/05/26 03:18:45;;;;;;;22.77;5.80;;;10.80;99.90;;;;;;5074553;28;20623;-62
2023/05/26 03:21:10;;;;;;;23.17;5.10;;;10.80;99.90;;;;;;5075047;28;20208;-62
2023/05/26 03:23:36;;;;;;;19.07;5.47;;;10.80;99.90;;;;;;5075010;28;20181;-63
2023/05/26 03:26:02;;;;;;;23.27;4.87;;;10.80;99.90;;;;;;5075165;28;20428;-62
2023/05/26 03:28:28;;;;;;;18.07;5.40;;;10.80;99.90;;;;;;5076250;28;20279;-63
2023/05/26 03:30:54;;;;;;;14.73;4.57;;;10.70;99.90;;;;;;5074869;28;20207;-62
2023/05/26 03:33:20;;;;;;;25.30;5.43;;;10.70;99.90;;;;;;5075010;28;20230;-63
2023/05/26 03:35:45;;;;;;;22.30;5.33;;;10.70;99.90;;;;;;5076478;28;20176;-62
2023/05/26 03:38:11;;;;;;;15.37;4.47;;;10.60;99.90;;;;;;5074414;28;20208;-63
2023/05/26 03:40:37;;;;;;;15.90;4.50;;;10.60;99.90;;;;;;5073218;28;20791;-62
2023/05/26 03:43:02;;;;;;;24.07;5.47;;;10.70;99.90;;;;;;5073626;28;20479;-62
2023/05/26 03:45:28;;;;;;;24.77;5.50;;;10.70;99.90;;;;;;5073420;28;20173;-62
2023/05/26 03:47:54;;;;;;;22.57;5.07;;;10.60;99.90;;;;;;5073729;28;20235;-62
2023/05/26 03:50:19;;;;;;;20.77;5.17;;;10.70;99.90;;;;;;5074856;28;20178;-63
2023/05/26 03:52:48;;;;;;;27.70;5.40;;;10.60;99.90;;;;;;5076974;28;20181;-63
2023/05/26 03:55:17;;;;;;;19.93;4.43;;;10.60;99.90;;;;;;5072281;28;20181;-62
2023/05/26 03:57:43;;;;;;;23.97;5.27;;;10.60;99.90;;;;;;5073279;28;20299;-62
2023/05/26 04:00:10;;;;;;;19.97;5.17;;;10.60;99.90;;;;;;5072089;28;20272;-62
2023/05/26 04:02:36;;;;;;;19.83;5.03;;;10.60;99.90;;;;;;5070065;28;20260;-62
2023/05/26 04:05:02;;;;;;;22.30;5.97;;;10.60;99.90;;;;;;5070120;28;20252;-63
2023/05/26 04:07:27;;;;;;;21.47;4.80;;;10.60;99.90;;;;;;5070072;28;20427;-63
2023/05/26 04:09:53;;;;;;;29.87;5.37;;;10.60;99.90;;;;;;5068689;28;20469;-62
2023/05/26 04:12:18;;;;;;;19.00;5.47;;;10.50;99.90;;;;;;5070040;28;20544;-63
2023/05/26 04:14:44;;;;;;;23.07;5.57;;;10.50;99.90;;;;;;5071365;28;20258;-63
2023/05/26 04:17:10;;;;;;;24.57;6.13;;;10.50;99.90;;;;;;5069727;28;20212;-62
2023/05/26 04:19:35;;;;;;;21.90;5.50;;;10.50;99.90;;;;;;5068997;28;20216;-63
2023/05/26 04:22:01;;;;;;;22.67;6.10;;;10.50;99.90;;;;;;5068398;28;20169;-62
2023/05/26 04:24:27;;;;;;;23.43;6.13;;;10.50;99.90;;;;;;5066423;28;20165;-62
2023/05/26 04:26:52;;;;;;;21.07;4.77;;;10.40;99.90;;;;;;5067005;28;20169;-63
2023/05/26 04:29:20;;;;;;;22.00;5.17;;;10.40;99.90;;;;;;5065329;28;20165;-63
2023/05/26 04:31:46;;;;;;;19.27;5.50;;;10.40;99.90;;;;;;5067175;28;20205;-63
2023/05/26 04:34:11;;;;;;;22.43;6.17;;;10.40;99.90;;;;;;5067817;28;20200;-63
2023/05/26 04:36:39;;;;;;;17.73;4.97;;;10.50;99.90;;;;;;5065572;28;20191;-62
2023/05/26 04:39:06;;;;;;;20.97;5.60;;;10.40;99.90;;;;;;5065083;28;20468;-63
2023/05/26 04:41:32;;;;;;;19.27;4.53;;;10.40;99.90;;;;;;5065995;28;20175;-63
2023/05/26 04:44:01;;;;;;;23.23;5.83;;;10.50;99.90;;;;;;5066026;28;20175;-62
2023/05/26 04:46:28;;;;;;;17.30;5.03;;;10.50;99.90;;;;;;5065863;28;20177;-62
2023/05/26 04:48:56;;;;;;;19.57;5.47;;;10.60;99.90;;;;;;5066216;28;20253;-62
2023/05/26 04:51:22;;;;;;;23.47;5.00;;;10.60;99.90;;;;;;5065083;28;20191;-62
2023/05/26 04:53:48;;;;;;;25.57;6.17;;;10.60;99.90;;;;;;5064715;28;20200;-62
2023/05/26 04:56:14;;;;;;;20.27;5.43;;;10.60;99.90;;;;;;5064967;28;20169;-63
2023/05/26 04:58:39;;;;;;;21.47;5.43;;;10.60;99.90;;;;;;5063330;28;20192;-63
2023/05/26 05:01:05;;;;;;;18.60;4.50;;;10.50;99.90;;;;;;5064091;28;20307;-63
2023/05/26 05:03:34;;;;;;;25.77;5.67;;;10.60;99.90;;;;;;5061847;28;20598;-62
2023/05/26 05:05:59;;;;;;;19.83;5.47;;;10.60;99.90;;;;;;5064024;28;20163;-62
2023/05/26 05:08:25;;;;;;;19.67;5.23;;;10.60;99.90;;;;;;5063286;28;20477;-63
2023/05/26 05:10:51;;;;;;;17.80;5.17;;;10.60;99.90;;;;;;5063170;28;20165;-62
2023/05/26 05:13:16;;;;;;;27.80;6.00;;;10.60;99.90;;;;;;5062707;28;20169;-63
2023/05/26 05:15:42;;;;;;;24.03;6.20;;;10.60;99.90;;;;;;5063412;28;20180;-63
2023/05/26 05:18:07;;;;;;;20.00;5.50;;;10.50;99.90;;;;;;5065173;28;20211;-63
2023/05/26 05:20:33;;;;;;;25.13;4.50;;;10.50;99.90;;;;;;5064388;28;20238;-62
2023/05/26 05:22:58;;;;;;;23.33;6.03;;;10.60;99.90;;;;;;5063074;28;20368;-62
2023/05/26 05:25:24;;;;;;;23.23;5.33;;;10.60;99.90;;;;;;5062892;28;20176;-63
2023/05/26 05:27:49;;;;;;;26.77;6.17;;;10.60;99.90;;;;;;5063780;28;20180;-62
2023/05/26 05:30:17;;;;;;;24.07;5.90;;;10.60;99.90;;;;;;5064591;28;20177;-62
2023/05/26 05:32:42;;;;;;;22.20;5.53;;;10.60;99.90;;;;;;5065213;28;20319;-62
2023/05/26 05:35:10;;;;;;;18.23;4.77;;;10.60;99.90;;;;;;5063070;28;20252;-62
2023/05/26 05:37:35;;;;;;;18.00;4.53;;;10.60;99.90;;;;;;5065797;28;20241;-62
2023/05/26 05:40:02;;;;;;;18.17;5.63;;;10.60;99.90;;;;;;5066127;28;20164;-62
2023/05/26 05:42:27;;;;;;;15.07;5.20;;;10.70;99.90;;;;;;5065761;28;20177;-63
2023/05/26 05:44:53;;;;;;;14.63;4.53;;;10.70;99.90;;;;;;5066060;28;20179;-62
2023/05/26 05:47:18;;;;;;;17.53;4.90;;;10.70;99.90;;;;;;5066049;28;20623;-62
2023/05/26 05:49:44;;;;;;;27.10;6.27;;;10.70;99.90;;;;;;5064376;28;20242;-63
2023/05/26 05:52:10;;;;;;;14.70;4.43;;;10.70;99.90;;;;;;5063531;28;20180;-63
2023/05/26 05:54:35;;;;;;;20.83;5.63;;;10.80;99.90;;;;;;5062177;28;20407;-62
2023/05/26 05:57:02;;;;;;;19.63;5.13;;;10.80;99.90;;;;;;5059226;28;20483;-63
2023/05/26 05:59:28;;;;;;;24.13;4.60;;;10.80;99.90;;;;;;5058302;28;20306;-62
2023/05/26 06:01:53;;;;;;;15.37;5.40;;;10.90;99.90;;;;;;5057989;28;20439;-63
2023/05/26 06:04:19;;;;;;;21.87;5.10;;;10.90;99.90;;;;;;5059233;28;20181;-63
2023/05/26 06:06:45;;;;;;;23.57;5.43;;;10.90;99.90;;;;;;5059560;28;20171;-63
2023/05/26 06:09:11;;;;;;;20.07;4.77;;;10.90;99.90;;;;;;5057616;28;20179;-62
2023/05/26 06:11:37;;;;;;;17.57;4.60;;;11.00;99.90;;;;;;5056980;28;20164;-62
2023/05/26 06:14:03;;;;;;;24.70;4.67;;;11.00;99.90;;;;;;5059426;28;20465;-62
2023/05/26 06:16:29;;;;;;;18.20;4.50;;;11.00;99.90;;;;;;5055603;28;20185;-64
2023/05/26 06:18:54;;;;;;;28.47;5.50;;;11.00;99.90;;;;;;5058042;28;20347;-62
2023/05/26 06:21:20;;;;;;;15.63;3.60;;;11.10;99.90;;;;;;5057236;28;20330;-63
2023/05/26 06:23:46;;;;;;;20.30;5.90;;;11.10;99.90;;;;;;5060233;28;20160;-63
2023/05/26 06:26:12;;;;;;;18.67;5.10;;;11.10;99.90;;;;;;5059821;28;20179;-63
2023/05/26 06:28:37;;;;;;;15.80;4.20;;;11.20;99.90;;;;;;5056698;28;20176;-63
2023/05/26 06:31:03;;;;;;;17.07;4.90;;;11.20;99.90;;;;;;5055167;28;20629;-63
2023/05/26 06:33:29;;;;;;;13.83;4.30;;;11.20;99.90;;;;;;5055448;28;20173;-63
2023/05/26 06:35:55;;;;;;;14.73;4.60;;;11.20;99.90;;;;;;5056170;28;20322;-63
2023/05/26 06:38:20;;;;;;;18.27;3.70;;;11.30;99.90;;;;;;5060621;28;20224;-63
2023/05/26 06:40:46;;;;;;;16.07;3.87;;;11.30;99.90;;;;;;5060873;28;20305;-63
2023/05/26 06:43:11;;;;;;;19.60;5.07;;;11.30;99.90;;;;;;5058362;28;20303;-63
2023/05/26 06:45:37;;;;;;;19.10;4.80;;;11.40;99.90;;;;;;5059402;28;20168;-63
2023/05/26 06:48:03;;;;;;;11.60;4.67;;;11.40;99.90;;;;;;5062278;28;20196;-63
2023/05/26 06:50:28;;;;;;;20.13;4.27;;;11.40;99.90;;;;;;5062745;28;20565;-65
2023/05/26 06:52:54;;;;;;;14.77;3.47;;;11.50;99.90;;;;;;5064215;28;20176;-63
2023/05/26 06:55:19;;;;;;;12.70;4.00;;;11.50;99.90;;;;;;5060431;28;20276;-63
2023/05/26 06:57:45;;;;;;;15.80;4.03;;;11.50;99.90;;;;;;5058920;28;20507;-62
2023/05/26 07:00:11;;;;;;;18.47;3.80;;;11.50;99.90;;;;;;5057324;28;20606;-63
2023/05/26 07:02:38;;;;;;;18.57;4.53;;;11.50;99.90;;;;;;5059140;28;20309;-62
2023/05/26 07:05:04;;;;;;;12.90;3.43;;;11.60;99.90;;;;;;5059310;28;20164;-63
2023/05/26 07:07:29;;;;;;;13.23;4.37;;;11.60;99.90;;;;;;5056350;28;20180;-61
2023/05/26 07:09:55;;;;;;;10.70;3.30;;;11.60;99.90;;;;;;5040218;28;20184;-62
2023/05/26 07:12:21;;;;;;;15.77;3.97;;;11.70;99.90;;;;;;5037609;28;20169;-63
2023/05/26 07:14:47;;;;;;;13.80;3.93;;;11.70;99.90;;;;;;5038085;28;20264;-62
2023/05/26 07:17:13;;;;;;;15.67;4.90;;;11.70;99.90;;;;;;5035450;28;20239;-62
2023/05/26 07:19:38;;;;;;;11.47;4.13;;;11.70;99.90;;;;;;5035830;28;20229;-62
2023/05/26 07:22:04;;;;;;;11.67;3.67;;;11.80;99.90;;;;;;5037350;28;20244;-62
2023/05/26 07:24:30;;;;;;;16.10;4.80;;;11.80;99.90;;;;;;5034896;28;20224;-62
2023/05/26 07:26:56;;;;;;;11.47;3.63;;;11.80;99.90;;;;;;5036885;28;20338;-62
2023/05/26 07:29:21;;;;;;;12.67;3.37;;;11.90;99.90;;;;;;5035607;28;20424;-63
2023/05/26 07:31:47;;;;;;;15.73;4.37;;;11.90;99.90;;;;;;5032849;28;20231;-62
2023/05/26 07:34:13;;;;;;;13.97;3.17;;;11.90;99.90;;;;;;5033011;28;20165;-62
2023/05/26 07:36:38;;;;;;;10.67;3.43;;;11.90;99.90;;;;;;5031673;28;20319;-63
2023/05/26 07:39:04;;;;;;;17.80;4.23;;;12.00;99.90;;;;;;5033376;28;20197;-63
2023/05/26 07:41:30;;;;;;;16.63;3.43;;;12.00;99.90;;;;;;5035524;28;20165;-62
2023/05/26 07:43:56;;;;;;;14.23;4.47;;;12.10;99.90;;;;;;5036402;28;20428;-63
2023/05/26 07:46:21;;;;;;;13.77;3.90;;;12.10;99.90;;;;;;5035413;28;20181;-62
2023/05/26 07:48:48;;;;;;;18.77;3.70;;;12.10;99.90;;;;;;5035909;28;20584;-64
2023/05/26 07:51:14;;;;;;;14.40;3.70;;;12.10;99.90;;;;;;5032906;28;20235;-63
2023/05/26 07:53:40;;;;;;;15.70;3.87;;;12.10;99.90;;;;;;5036277;28;20262;-63
2023/05/26 07:56:06;;;;;;;11.03;3.60;;;12.20;99.90;;;;;;5035490;28;20229;-62
2023/05/26 07:58:31;;;;;;;11.63;3.17;;;12.20;99.90;;;;;;5033576;28;20414;-63
2023/05/26 08:00:57;;;;;;;15.57;3.50;;;12.20;99.90;;;;;;5035828;28;20169;-63
2023/05/26 08:03:23;;;;;;;7.53;3.10;;;12.30;99.90;;;;;;5035534;28;20496;-63
2023/05/26 08:05:48;;;;;;;16.60;3.50;;;12.40;99.90;;;;;;5034521;28;20363;-63
2023/05/26 08:08:14;;;;;;;10.60;3.57;;;12.40;99.90;;;;;;5032177;28;20342;-62
2023/05/26 08:10:40;;;;;;;13.23;3.80;;;12.50;99.90;;;;;;5030137;28;20187;-62
2023/05/26 08:13:05;;;;;;;12.27;3.23;;;12.50;99.90;;;;;;5030997;28;20178;-63
2023/05/26 08:15:31;;;;;;;12.73;3.27;;;12.50;99.90;;;;;;5030373;28;20529;-63
2023/05/26 08:17:56;;;;;;;10.20;3.57;;;12.50;99.90;;;;;;5031712;28;20419;-62
2023/05/26 08:20:22;;;;;;;9.47;3.70;;;12.50;99.90;;;;;;5032516;28;20715;-63
2023/05/26 08:22:47;;;;;;;11.37;3.60;;;12.60;99.90;;;;;;5033933;28;20343;-62
2023/05/26 08:25:13;;;;;;;17.87;4.13;;;12.60;99.90;;;;;;5033746;28;20169;-63
2023/05/26 08:27:39;;;;;;;12.40;2.97;;;12.60;99.90;;;;;;5037864;28;20460;-62
2023/05/26 08:30:07;;;;;;;27.40;4.67;;;12.60;99.90;;;;;;5035846;28;20165;-62
2023/05/26 08:32:34;;;;;;;9.03;2.90;;;12.60;99.90;;;;;;5034834;28;20169;-63
2023/05/26 08:34:59;;;;;;;10.50;3.33;;;12.60;99.90;;;;;;5034461;28;20317;-62
2023/05/26 08:37:25;;;;;;;10.77;2.73;;;12.70;99.90;;;;;;5041797;28;20280;-63
2023/05/26 08:39:50;;;;;;;12.00;4.23;;;12.70;99.90;;;;;;5041143;28;20176;-63
2023/05/26 08:42:21;;;;;;;15.57;4.57;;;12.70;99.90;;;;;;5040401;28;20196;-63
2023/05/26 08:44:46;;;;;;;18.23;3.97;;;12.80;99.90;;;;;;5042531;28;20162;-63
2023/05/26 08:47:12;;;;;;;16.60;3.97;;;12.90;99.90;;;;;;5041219;28;20200;-63
2023/05/26 08:49:56;;;;;;;12.63;4.13;;;12.90;99.90;;;;;;5041714;28;20201;-62
2023/05/26 08:52:23;;;;;;;15.93;4.33;;;12.90;99.90;;;;;;5043633;28;20173;-63
2023/05/26 08:54:49;;;;;;;12.40;3.80;;;12.90;99.90;;;;;;5042592;28;20260;-62
2023/05/26 08:57:17;;;;;;;13.20;4.40;;;12.90;99.90;;;;;;5043865;28;20166;-62
2023/05/26 08:59:45;;;;;;;7.90;3.43;;;13.00;99.90;;;;;;5041441;28;20646;-63
2023/05/26 09:02:12;;;;;;;12.23;3.13;;;13.00;99.90;;;;;;5043827;28;20217;-62
2023/05/26 09:04:38;;;;;;;11.73;3.70;;;13.00;99.90;;;;;;5043834;28;20177;-62
2023/05/26 09:07:08;;;;;;;14.80;3.40;;;13.10;99.90;;;;;;5044087;28;20180;-63
2023/05/26 09:09:33;;;;;;;17.43;3.97;;;13.10;99.90;;;;;;5044751;28;20165;-64
2023/05/26 09:11:59;;;;;;;14.00;3.87;;;13.20;99.90;;;;;;5045559;28;20199;-62
2023/05/26 09:14:25;;;;;;;16.03;4.47;;;13.20;99.90;;;;;;5048477;28;20243;-63
2023/05/26 09:16:52;;;;;;;10.13;3.13;;;13.20;99.90;;;;;;5045781;28;20196;-63
2023/05/26 09:19:18;;;;;;;12.73;4.40;;;13.30;99.90;;;;;;5045264;28;20228;-62
2023/05/26 09:21:48;;;;;;;14.27;3.87;;;13.30;99.90;;;;;;5047588;28;20166;-63
2023/05/26 09:24:16;;;;;;;12.03;4.10;;;13.40;99.90;;;;;;5048527;28;20777;-63
2023/05/26 09:26:44;;;;;;;14.20;4.60;;;13.30;99.90;;;;;;5047890;28;20715;-63
2023/05/26 09:29:10;;;;;;;9.13;3.00;;;13.40;99.90;;;;;;5047490;28;20173;-66
2023/05/26 09:31:39;;;;;;;14.47;3.97;;;13.50;99.90;;;;;;5047534;28;20173;-66
2023/05/26 09:34:06;;;;;;;12.93;3.40;;;13.60;99.90;;;;;;5048171;28;20243;-65
2023/05/26 09:36:36;;;;;;;12.20;4.03;;;13.60;99.90;;;;;;5045852;28;20260;-66
2023/05/26 09:39:07;;;;;;;8.20;2.77;;;13.70;99.90;;;;;;5047219;28;20307;-65
2023/05/26 09:41:40;;;;;;;16.70;3.57;;;13.70;99.90;;;;;;5047266;28;20183;-66
2023/05/26 09:44:10;;;;;;;16.83;4.57;;;13.80;99.90;;;;;;5047821;28;20184;-66
2023/05/26 09:46:36;;;;;;;13.83;4.10;;;13.70;99.90;;;;;;5048394;28;20166;-66
2023/05/26 09:49:08;;;;;;;13.70;4.47;;;13.70;99.90;;;;;;5047488;28;20177;-65
2023/05/26 09:51:34;;;;;;;11.20;3.40;;;13.70;99.90;;;;;;5048125;28;20170;-65
2023/05/26 09:53:59;;;;;;;15.23;3.87;;;13.80;99.90;;;;;;5048530;28;20619;-65
2023/05/26 09:56:32;;;;;;;14.67;4.80;;;13.80;99.90;;;;;;5047243;28;20170;-64
2023/05/26 09:59:04;;;;;;;16.77;3.87;;;13.90;99.90;;;;;;5048378;28;20758;-66
2023/05/26 10:01:31;;;;;;;10.33;3.30;;;13.90;99.90;;;;;;5046386;28;20200;-65
2023/05/26 10:03:57;;;;;;;12.40;3.77;;;13.90;99.90;;;;;;5045688;28;20227;-63
2023/05/26 10:06:23;;;;;;;12.77;3.77;;;14.00;99.90;;;;;;5043401;28;20174;-63
2023/05/26 10:08:52;;;;;;;15.23;3.90;;;14.00;99.90;;;;;;5042561;28;20166;-62
2023/05/26 10:11:20;;;;;;;13.37;3.50;;;14.10;99.90;;;;;;5042009;28;20227;-63
2023/05/26 10:13:46;;;;;;;17.20;4.17;;;14.10;99.90;;;;;;5045316;28;20216;-63
2023/05/26 10:16:12;;;;;;;17.87;4.37;;;14.20;99.90;;;;;;5046678;28;20205;-64
2023/05/26 10:18:38;;;;;;;11.63;3.80;;;14.20;99.90;;;;;;5047511;28;20197;-63
2023/05/26 10:21:07;;;;;;;12.57;3.20;;;14.20;99.90;;;;;;5048468;28;20293;-62
2023/05/26 10:23:53;;;;;;;10.83;3.97;;;14.20;99.90;;;;;;5048593;28;20673;-63
2023/05/26 10:26:42;;;;;;;14.10;4.27;;;14.30;99.90;;;;;;5049443;28;20191;-62
2023/05/26 10:29:14;;;;;;;12.97;4.43;;;14.30;99.90;;;;;;5047464;28;20173;-63
2023/05/26 10:31:40;;;;;;;12.17;3.93;;;14.30;99.90;;;;;;5047922;28;20170;-61
2023/05/26 10:34:13;;;;;;;9.80;3.70;;;14.30;99.90;;;;;;5047131;28;20222;-63
2023/05/26 10:36:38;;;;;;;10.20;3.40;;;14.50;99.90;;;;;;5047301;28;20184;-64
2023/05/26 10:39:10;;;;;;;13.87;3.77;;;14.60;99.90;;;;;;5048790;28;20430;-62
2023/05/26 10:41:48;;;;;;;18.40;4.30;;;14.70;99.90;;;;;;5048506;28;20566;-63
2023/05/26 10:44:40;;;;;;;10.60;3.87;;;14.70;99.90;;;;;;5047206;28;20256;-62
2023/05/26 10:47:05;;;;;;;14.03;4.40;;;14.70;99.90;;;;;;5047393;28;20202;-61
2023/05/26 10:49:38;;;;;;;10.17;3.93;;;14.90;99.90;;;;;;5046906;28;20213;-62
2023/05/26 10:52:13;;;;;;;11.53;4.23;;;14.90;99.90;;;;;;5044604;28;20761;-62
2023/05/26 10:54:40;;;;;;;8.33;4.00;;;15.00;99.90;;;;;;5042231;28;20176;-62
2023/05/26 10:57:25;;;;;;;14.73;4.33;;;15.10;99.90;;;;;;5039875;28;20216;-62
2023/05/26 10:59:53;;;;;;;11.20;3.53;;;15.20;99.90;;;;;;5038413;28;20177;-62
2023/05/26 11:02:20;;;;;;;9.93;3.50;;;15.20;99.90;;;;;;5039275;28;20173;-62
2023/05/26 11:04:47;;;;;;;15.77;4.40;;;15.30;99.90;;;;;;5038875;28;20182;-62
2023/05/26 11:07:18;;;;;;;11.87;4.30;;;15.30;99.90;;;;;;5037487;28;20173;-62
2023/05/26 11:10:05;;;;;;;16.83;4.70;;;15.30;99.90;;;;;;5035716;28;20634;-62
2023/05/26 11:12:47;;;;;;;13.27;4.37;;;15.20;99.90;;;;;;5036353;28;20454;-62
2023/05/26 11:15:29;;;;;;;16.83;4.97;;;15.30;99.90;;;;;;5037877;28;20314;-62
2023/05/26 11:18:01;;;;;;;18.83;4.17;;;15.30;99.90;;;;;;5037084;28;20565;-62
2023/05/26 11:20:26;;;;;;;14.27;4.43;;;15.40;99.90;;;;;;5035689;28;20221;-62
2023/05/26 11:22:52;;;;;;;13.47;4.83;;;15.40;99.90;;;;;;5041662;28;20173;-62
2023/05/26 11:25:19;;;;;;;10.40;4.17;;;15.30;99.90;;;;;;5042097;28;20166;-62
2023/05/26 11:27:46;;;;;;;13.97;4.23;;;15.30;99.90;;;;;;5043597;28;20169;-61
2023/05/26 11:30:12;;;;;;;12.37;4.37;;;15.30;99.90;;;;;;5044186;28;20176;-62
2023/05/26 11:32:47;;;;;;;14.23;5.23;;;15.30;99.90;;;;;;5044773;28;20181;-61
2023/05/26 11:35:27;;;;;;;17.23;5.07;;;15.40;99.90;;;;;;5045600;28;20169;-63
2023/05/26 11:37:53;;;;;;;15.63;5.37;;;15.40;99.90;;;;;;5046226;28;20288;-62
2023/05/26 11:40:19;;;;;;;16.73;5.70;;;15.50;99.90;;;;;;5046774;28;20495;-63
2023/05/26 11:42:46;;;;;;;12.43;4.80;;;15.30;99.90;;;;;;5048719;28;20162;-62
2023/05/26 11:45:13;;;;;;;21.83;6.83;;;15.30;99.90;;;;;;5047499;28;20170;-63
2023/05/26 11:47:39;;;;;;;15.07;5.63;;;15.40;99.90;;;;;;5048302;28;20174;-62
2023/05/26 11:50:09;;;;;;;12.70;4.93;;;15.50;99.90;;;;;;5047187;28;20162;-64
2023/05/26 11:52:41;;;;;;;16.23;4.70;;;15.40;99.90;;;;;;5047582;28;20177;-63
2023/05/26 11:55:10;;;;;;;10.60;4.80;;;15.60;99.90;;;;;;5030889;28;20243;-63
2023/05/26 11:57:36;;;;;;;16.20;5.17;;;15.80;99.90;;;;;;5048541;28;20557;-64
2023/05/26 12:00:09;;;;;;;13.20;5.30;;;15.70;99.90;;;;;;5044983;28;20169;-63
2023/05/26 12:02:35;;;;;;;12.40;4.73;;;15.80;99.90;;;;;;5039816;28;20193;-63
2023/05/26 12:05:18;;;;;;;14.53;4.27;;;16.00;99.90;;;;;;5038552;28;20192;-62
2023/05/26 12:07:44;;;;;;;15.33;5.03;;;16.00;99.90;;;;;;5040702;28;20193;-63
2023/05/26 12:10:10;;;;;;;8.17;3.73;;;16.00;99.90;;;;;;5041142;28;20262;-63
2023/05/26 12:12:51;;;;;;;13.93;4.87;;;16.20;99.90;;;;;;5038742;28;20338;-63
2023/05/26 12:15:20;;;;;;;12.43;4.10;;;16.30;99.90;;;;;;5040482;28;20246;-63
2023/05/26 12:17:57;;;;;;;11.63;4.10;;;16.40;99.90;;;;;;5042460;28;20209;-64
2023/05/26 12:20:24;;;;;;;17.40;4.77;;;16.40;99.90;;;;;;5037960;28;20644;-63
2023/05/26 12:22:51;;;;;;;15.73;4.97;;;16.40;99.90;;;;;;5037652;28;20373;-62
2023/05/26 12:25:24;;;;;;;16.47;4.83;;;16.30;99.90;;;;;;5039196;28;20456;-62
2023/05/26 12:27:50;;;;;;;11.13;4.23;;;16.10;99.90;;;;;;5042231;28;20173;-63
2023/05/26 12:30:17;;;;;;;11.27;4.47;;;16.20;99.90;;;;;;5040361;28;20316;-64
2023/05/26 12:32:43;;;;;;;10.80;3.93;;;16.30;99.90;;;;;;5040469;28;20182;-64
2023/05/26 12:35:08;;;;;;;13.10;3.87;;;16.50;99.90;;;;;;5042417;28;20231;-62
2023/05/26 12:37:34;;;;;;;13.20;4.17;;;16.60;99.90;;;;;;5040264;28;20208;-61
2023/05/26 12:40:00;;;;;;;10.47;4.50;;;16.70;99.90;;;;;;5040455;28;20264;-61